﻿<?xml version="1.0" encoding="UTF-8" standalone="no"?>
<gpx xmlns="http://www.topografix.com/GPX/1/1" xmlns:gpxtpx="http://www.garmin.com/xmlschemas/TrackPointExtension/v1" xmlns:xsi="http://www.w3.org/2001/XMLSchema-instance" creator="Hribi.net" version="1.1" xsi:schemaLocation="http://www.topografix.com/GPX/1/1 http://www.topografix.com/GPX/1/1/gpx.xsd http://www.garmin.com/xmlschemas/TrackPointExtension/v1 http://www.garmin.com/xmlschemas/TrackPointExtensionv1.xsd">
  <metadata>
    <name>GPS sled</name>
    <desc>www.hribi.net</desc>
    <author>
      <name>hribi.net</name>
    </author>
    <link href="http://www.hribi.net">
      <text>Hribi.net</text>
    </link>
  </metadata>
  <trk>
    <trkseg>
      <trkpt lat="46.506106" lon="14.487079">
        <ele>2143.6584</ele>
        <time>2012-07-07T09:40:28Z</time>
      </trkpt>
      <trkpt lat="46.505935" lon="14.487255">
        <ele>2137.5624</ele>
        <time>2012-07-07T09:41:25Z</time>
      </trkpt>
      <trkpt lat="46.504958" lon="14.486940">
        <ele>2114.0928</ele>
        <time>2012-07-07T09:43:01Z</time>
      </trkpt>
      <trkpt lat="46.504795" lon="14.486782">
        <ele>2107.9968</ele>
        <time>2012-07-07T09:43:20Z</time>
      </trkpt>
      <trkpt lat="46.504565" lon="14.486006">
        <ele>2091.5376</ele>
        <time>2012-07-07T09:44:20Z</time>
      </trkpt>
      <trkpt lat="46.504290" lon="14.486136">
        <ele>2081.1744</ele>
        <time>2012-07-07T09:46:14Z</time>
      </trkpt>
      <trkpt lat="46.504109" lon="14.486157">
        <ele>2072.3352</ele>
        <time>2012-07-07T09:46:41Z</time>
      </trkpt>
      <trkpt lat="46.503987" lon="14.486355">
        <ele>2065.9344</ele>
        <time>2012-07-07T09:46:57Z</time>
      </trkpt>
      <trkpt lat="46.503813" lon="14.486482">
        <ele>2060.7528</ele>
        <time>2012-07-07T09:47:13Z</time>
      </trkpt>
      <trkpt lat="46.503498" lon="14.486940">
        <ele>2045.208</ele>
        <time>2012-07-07T09:47:50Z</time>
      </trkpt>
      <trkpt lat="46.503453" lon="14.487236">
        <ele>2042.7696</ele>
        <time>2012-07-07T09:48:10Z</time>
      </trkpt>
      <trkpt lat="46.503467" lon="14.486931">
        <ele>2043.9888</ele>
        <time>2012-07-07T09:48:48Z</time>
      </trkpt>
      <trkpt lat="46.503245" lon="14.486837">
        <ele>2041.2456</ele>
        <time>2012-07-07T09:49:07Z</time>
      </trkpt>
      <trkpt lat="46.502703" lon="14.487257">
        <ele>2036.064</ele>
        <time>2012-07-07T09:50:24Z</time>
      </trkpt>
      <trkpt lat="46.502105" lon="14.488155">
        <ele>2022.9576</ele>
        <time>2012-07-07T09:51:22Z</time>
      </trkpt>
      <trkpt lat="46.501959" lon="14.488744">
        <ele>2021.4336</ele>
        <time>2012-07-07T09:51:59Z</time>
      </trkpt>
      <trkpt lat="46.501967" lon="14.489042">
        <ele>2015.9472</ele>
        <time>2012-07-07T09:52:18Z</time>
      </trkpt>
      <trkpt lat="46.502132" lon="14.489712">
        <ele>2002.8408</ele>
        <time>2012-07-07T09:52:57Z</time>
      </trkpt>
      <trkpt lat="46.502172" lon="14.490077">
        <ele>1999.7928</ele>
        <time>2012-07-07T09:53:16Z</time>
      </trkpt>
      <trkpt lat="46.501452" lon="14.490504">
        <ele>1991.868</ele>
        <time>2012-07-07T09:54:14Z</time>
      </trkpt>
      <trkpt lat="46.501302" lon="14.490722">
        <ele>1987.296</ele>
        <time>2012-07-07T09:54:33Z</time>
      </trkpt>
      <trkpt lat="46.501199" lon="14.491013">
        <ele>1979.9808</ele>
        <time>2012-07-07T09:54:52Z</time>
      </trkpt>
      <trkpt lat="46.501180" lon="14.491716">
        <ele>1963.2168</ele>
        <time>2012-07-07T09:55:50Z</time>
      </trkpt>
      <trkpt lat="46.501283" lon="14.492077">
        <ele>1960.4736</ele>
        <time>2012-07-07T09:56:09Z</time>
      </trkpt>
      <trkpt lat="46.501467" lon="14.493147">
        <ele>1947.9768</ele>
        <time>2012-07-07T09:57:07Z</time>
      </trkpt>
      <trkpt lat="46.501453" lon="14.493409">
        <ele>1943.4048</ele>
        <time>2012-07-07T09:57:26Z</time>
      </trkpt>
      <trkpt lat="46.501692" lon="14.494638">
        <ele>1917.4968</ele>
        <time>2012-07-07T09:59:03Z</time>
      </trkpt>
      <trkpt lat="46.501905" lon="14.494829">
        <ele>1912.3152</ele>
        <time>2012-07-07T09:59:21Z</time>
      </trkpt>
      <trkpt lat="46.502025" lon="14.495088">
        <ele>1908.3528</ele>
        <time>2012-07-07T09:59:40Z</time>
      </trkpt>
      <trkpt lat="46.501975" lon="14.495340">
        <ele>1904.3904</ele>
        <time>2012-07-07T10:00:20Z</time>
      </trkpt>
      <trkpt lat="46.501637" lon="14.495127">
        <ele>1892.5032</ele>
        <time>2012-07-07T10:02:15Z</time>
      </trkpt>
      <trkpt lat="46.501747" lon="14.495364">
        <ele>1891.8936</ele>
        <time>2012-07-07T10:03:32Z</time>
      </trkpt>
      <trkpt lat="46.501780" lon="14.495620">
        <ele>1891.284</ele>
        <time>2012-07-07T10:03:47Z</time>
      </trkpt>
      <trkpt lat="46.501921" lon="14.495931">
        <ele>1894.0272</ele>
        <time>2012-07-07T10:04:07Z</time>
      </trkpt>
      <trkpt lat="46.502152" lon="14.496822">
        <ele>1888.8456</ele>
        <time>2012-07-07T10:05:05Z</time>
      </trkpt>
      <trkpt lat="46.502722" lon="14.497405">
        <ele>1889.76</ele>
        <time>2012-07-07T10:05:58Z</time>
      </trkpt>
      <trkpt lat="46.502921" lon="14.498112">
        <ele>1880.3112</ele>
        <time>2012-07-07T10:06:54Z</time>
      </trkpt>
      <trkpt lat="46.503091" lon="14.498272">
        <ele>1875.4344</ele>
        <time>2012-07-07T10:07:12Z</time>
      </trkpt>
      <trkpt lat="46.503817" lon="14.499590">
        <ele>1856.8416</ele>
        <time>2012-07-07T10:08:45Z</time>
      </trkpt>
      <trkpt lat="46.503892" lon="14.500127">
        <ele>1848.612</ele>
        <time>2012-07-07T10:09:20Z</time>
      </trkpt>
      <trkpt lat="46.504039" lon="14.500521">
        <ele>1842.8208</ele>
        <time>2012-07-07T10:09:39Z</time>
      </trkpt>
      <trkpt lat="46.504238" lon="14.500720">
        <ele>1839.7728</ele>
        <time>2012-07-07T10:09:58Z</time>
      </trkpt>
      <trkpt lat="46.504246" lon="14.501148">
        <ele>1827.8856</ele>
        <time>2012-07-07T10:11:31Z</time>
      </trkpt>
      <trkpt lat="46.504143" lon="14.501456">
        <ele>1830.9336</ele>
        <time>2012-07-07T10:11:50Z</time>
      </trkpt>
      <trkpt lat="46.503818" lon="14.501973">
        <ele>1832.4576</ele>
        <time>2012-07-07T10:12:28Z</time>
      </trkpt>
      <trkpt lat="46.503623" lon="14.502118">
        <ele>1830.6288</ele>
        <time>2012-07-07T10:12:47Z</time>
      </trkpt>
      <trkpt lat="46.503443" lon="14.502101">
        <ele>1826.6664</ele>
        <time>2012-07-07T10:12:56Z</time>
      </trkpt>
      <trkpt lat="46.503304" lon="14.502278">
        <ele>1815.6936</ele>
        <time>2012-07-07T10:13:12Z</time>
      </trkpt>
      <trkpt lat="46.503121" lon="14.502346">
        <ele>1816.608</ele>
        <time>2012-07-07T10:13:27Z</time>
      </trkpt>
      <trkpt lat="46.502836" lon="14.502686">
        <ele>1810.8168</ele>
        <time>2012-07-07T10:14:06Z</time>
      </trkpt>
      <trkpt lat="46.502670" lon="14.503507">
        <ele>1807.1592</ele>
        <time>2012-07-07T10:15:25Z</time>
      </trkpt>
      <trkpt lat="46.502683" lon="14.503782">
        <ele>1802.5872</ele>
        <time>2012-07-07T10:15:45Z</time>
      </trkpt>
      <trkpt lat="46.502784" lon="14.504067">
        <ele>1777.2888</ele>
        <time>2012-07-07T10:16:16Z</time>
      </trkpt>
      <trkpt lat="46.502791" lon="14.504348">
        <ele>1766.0112</ele>
        <time>2012-07-07T10:17:22Z</time>
      </trkpt>
      <trkpt lat="46.502972" lon="14.504629">
        <ele>1765.4016</ele>
        <time>2012-07-07T10:17:34Z</time>
      </trkpt>
      <trkpt lat="46.503057" lon="14.504964">
        <ele>1754.4288</ele>
        <time>2012-07-07T10:17:52Z</time>
      </trkpt>
      <trkpt lat="46.503208" lon="14.505250">
        <ele>1753.2096</ele>
        <time>2012-07-07T10:18:12Z</time>
      </trkpt>
      <trkpt lat="46.503128" lon="14.505488">
        <ele>1741.3224</ele>
        <time>2012-07-07T10:19:02Z</time>
      </trkpt>
      <trkpt lat="46.502972" lon="14.505639">
        <ele>1737.6648</ele>
        <time>2012-07-07T10:19:29Z</time>
      </trkpt>
      <trkpt lat="46.502763" lon="14.505743">
        <ele>1731.5688</ele>
        <time>2012-07-07T10:20:31Z</time>
      </trkpt>
      <trkpt lat="46.502748" lon="14.506119">
        <ele>1728.5208</ele>
        <time>2012-07-07T10:20:45Z</time>
      </trkpt>
      <trkpt lat="46.502577" lon="14.506028">
        <ele>1709.0136</ele>
        <time>2012-07-07T10:21:45Z</time>
      </trkpt>
      <trkpt lat="46.502413" lon="14.506560">
        <ele>1705.0512</ele>
        <time>2012-07-07T10:22:38Z</time>
      </trkpt>
      <trkpt lat="46.502473" lon="14.507118">
        <ele>1690.4208</ele>
        <time>2012-07-07T10:23:42Z</time>
      </trkpt>
      <trkpt lat="46.502616" lon="14.507637">
        <ele>1681.5816</ele>
        <time>2012-07-07T10:24:36Z</time>
      </trkpt>
      <trkpt lat="46.502634" lon="14.507899">
        <ele>1683.1056</ele>
        <time>2012-07-07T10:24:53Z</time>
      </trkpt>
      <trkpt lat="46.502740" lon="14.508112">
        <ele>1685.8488</ele>
        <time>2012-07-07T10:25:28Z</time>
      </trkpt>
      <trkpt lat="46.502752" lon="14.508379">
        <ele>1670.6088</ele>
        <time>2012-07-07T10:25:54Z</time>
      </trkpt>
      <trkpt lat="46.502917" lon="14.508856">
        <ele>1660.5504</ele>
        <time>2012-07-07T10:26:47Z</time>
      </trkpt>
      <trkpt lat="46.502733" lon="14.508868">
        <ele>1650.492</ele>
        <time>2012-07-07T10:27:39Z</time>
      </trkpt>
      <trkpt lat="46.502534" lon="14.508756">
        <ele>1647.7488</ele>
        <time>2012-07-07T10:27:47Z</time>
      </trkpt>
      <trkpt lat="46.502608" lon="14.509008">
        <ele>1631.2896</ele>
        <time>2012-07-07T10:28:37Z</time>
      </trkpt>
      <trkpt lat="46.502481" lon="14.509208">
        <ele>1621.536</ele>
        <time>2012-07-07T10:29:04Z</time>
      </trkpt>
      <trkpt lat="46.502608" lon="14.509402">
        <ele>1605.9912</ele>
        <time>2012-07-07T10:29:37Z</time>
      </trkpt>
      <trkpt lat="46.502600" lon="14.509958">
        <ele>1596.8472</ele>
        <time>2012-07-07T10:30:36Z</time>
      </trkpt>
      <trkpt lat="46.502381" lon="14.510133">
        <ele>1597.7616</ele>
        <time>2012-07-07T10:30:48Z</time>
      </trkpt>
      <trkpt lat="46.502124" lon="14.510678">
        <ele>1585.5696</ele>
        <time>2012-07-07T10:32:05Z</time>
      </trkpt>
      <trkpt lat="46.501716" lon="14.510826">
        <ele>1535.2776</ele>
        <time>2012-07-07T10:46:10Z</time>
      </trkpt>
      <trkpt lat="46.501779" lon="14.510886">
        <ele>1541.6784</ele>
        <time>2012-07-07T10:46:26Z</time>
      </trkpt>
      <trkpt lat="46.501747" lon="14.511208">
        <ele>1542.288</ele>
        <time>2012-07-07T10:47:04Z</time>
      </trkpt>
      <trkpt lat="46.501583" lon="14.511325">
        <ele>1544.4216</ele>
        <time>2012-07-07T10:47:23Z</time>
      </trkpt>
      <trkpt lat="46.501592" lon="14.511712">
        <ele>1542.8976</ele>
        <time>2012-07-07T10:47:42Z</time>
      </trkpt>
      <trkpt lat="46.501797" lon="14.511998">
        <ele>1537.1064</ele>
        <time>2012-07-07T10:48:02Z</time>
      </trkpt>
      <trkpt lat="46.501894" lon="14.512364">
        <ele>1537.716</ele>
        <time>2012-07-07T10:48:23Z</time>
      </trkpt>
      <trkpt lat="46.501825" lon="14.512630">
        <ele>1536.192</ele>
        <time>2012-07-07T10:48:41Z</time>
      </trkpt>
      <trkpt lat="46.501890" lon="14.512341">
        <ele>1540.4592</ele>
        <time>2012-07-07T10:49:26Z</time>
      </trkpt>
      <trkpt lat="46.501872" lon="14.512047">
        <ele>1541.9832</ele>
        <time>2012-07-07T10:49:38Z</time>
      </trkpt>
      <trkpt lat="46.501762" lon="14.511685">
        <ele>1545.9456</ele>
        <time>2012-07-07T10:49:57Z</time>
      </trkpt>
      <trkpt lat="46.501726" lon="14.511004">
        <ele>1550.5176</ele>
        <time>2012-07-07T10:50:36Z</time>
      </trkpt>
      <trkpt lat="46.501789" lon="14.510667">
        <ele>1550.8224</ele>
        <time>2012-07-07T10:50:54Z</time>
      </trkpt>
      <trkpt lat="46.501692" lon="14.510426">
        <ele>1552.956</ele>
        <time>2012-07-07T10:51:18Z</time>
      </trkpt>
      <trkpt lat="46.501458" lon="14.510720">
        <ele>1552.3464</ele>
        <time>2012-07-07T10:52:50Z</time>
      </trkpt>
      <trkpt lat="46.501618" lon="14.510568">
        <ele>1545.9456</ele>
        <time>2012-07-07T10:54:38Z</time>
      </trkpt>
      <trkpt lat="46.501695" lon="14.510322">
        <ele>1543.812</ele>
        <time>2012-07-07T10:54:46Z</time>
      </trkpt>
      <trkpt lat="46.501382" lon="14.509790">
        <ele>1549.908</ele>
        <time>2012-07-07T10:55:25Z</time>
      </trkpt>
      <trkpt lat="46.501183" lon="14.509735">
        <ele>1552.0416</ele>
        <time>2012-07-07T10:55:48Z</time>
      </trkpt>
      <trkpt lat="46.500909" lon="14.509549">
        <ele>1549.908</ele>
        <time>2012-07-07T10:56:04Z</time>
      </trkpt>
      <trkpt lat="46.500670" lon="14.509469">
        <ele>1539.8496</ele>
        <time>2012-07-07T10:56:23Z</time>
      </trkpt>
      <trkpt lat="46.500414" lon="14.509236">
        <ele>1538.3256</ele>
        <time>2012-07-07T10:56:42Z</time>
      </trkpt>
      <trkpt lat="46.500187" lon="14.509173">
        <ele>1537.1064</ele>
        <time>2012-07-07T10:57:01Z</time>
      </trkpt>
      <trkpt lat="46.500043" lon="14.509007">
        <ele>1536.8016</ele>
        <time>2012-07-07T10:57:09Z</time>
      </trkpt>
      <trkpt lat="46.499856" lon="14.508960">
        <ele>1536.8016</ele>
        <time>2012-07-07T10:57:21Z</time>
      </trkpt>
      <trkpt lat="46.498433" lon="14.508157">
        <ele>1525.524</ele>
        <time>2012-07-07T10:59:32Z</time>
      </trkpt>
      <trkpt lat="46.498290" lon="14.507965">
        <ele>1522.476</ele>
        <time>2012-07-07T10:59:51Z</time>
      </trkpt>
      <trkpt lat="46.498310" lon="14.507698">
        <ele>1518.8184</ele>
        <time>2012-07-07T11:00:13Z</time>
      </trkpt>
      <trkpt lat="46.498438" lon="14.507412">
        <ele>1516.38</ele>
        <time>2012-07-07T11:00:32Z</time>
      </trkpt>
      <trkpt lat="46.498486" lon="14.507049">
        <ele>1513.9416</ele>
        <time>2012-07-07T11:00:48Z</time>
      </trkpt>
      <trkpt lat="46.498341" lon="14.506731">
        <ele>1516.38</ele>
        <time>2012-07-07T11:01:07Z</time>
      </trkpt>
      <trkpt lat="46.497840" lon="14.507179">
        <ele>1507.8456</ele>
        <time>2012-07-07T11:02:03Z</time>
      </trkpt>
      <trkpt lat="46.497552" lon="14.507629">
        <ele>1485.5952</ele>
        <time>2012-07-07T11:03:00Z</time>
      </trkpt>
      <trkpt lat="46.497324" lon="14.507620">
        <ele>1473.4032</ele>
        <time>2012-07-07T11:03:20Z</time>
      </trkpt>
      <trkpt lat="46.497149" lon="14.507531">
        <ele>1459.992</ele>
        <time>2012-07-07T11:04:09Z</time>
      </trkpt>
      <trkpt lat="46.496787" lon="14.507735">
        <ele>1452.0672</ele>
        <time>2012-07-07T11:04:40Z</time>
      </trkpt>
      <trkpt lat="46.496603" lon="14.507732">
        <ele>1436.5224</ele>
        <time>2012-07-07T11:04:59Z</time>
      </trkpt>
      <trkpt lat="46.496098" lon="14.508035">
        <ele>1427.988</ele>
        <time>2012-07-07T11:05:37Z</time>
      </trkpt>
      <trkpt lat="46.495623" lon="14.508117">
        <ele>1411.8336</ele>
        <time>2012-07-07T11:06:14Z</time>
      </trkpt>
      <trkpt lat="46.495315" lon="14.508488">
        <ele>1402.9944</ele>
        <time>2012-07-07T11:07:15Z</time>
      </trkpt>
      <trkpt lat="46.494968" lon="14.508671">
        <ele>1388.0592</ele>
        <time>2012-07-07T11:07:50Z</time>
      </trkpt>
      <trkpt lat="46.494487" lon="14.509171">
        <ele>1368.552</ele>
        <time>2012-07-07T11:09:07Z</time>
      </trkpt>
      <trkpt lat="46.494337" lon="14.508735">
        <ele>1355.4456</ele>
        <time>2012-07-07T11:09:45Z</time>
      </trkpt>
      <trkpt lat="46.494310" lon="14.508251">
        <ele>1356.9696</ele>
        <time>2012-07-07T11:10:04Z</time>
      </trkpt>
      <trkpt lat="46.494049" lon="14.507715">
        <ele>1358.1888</ele>
        <time>2012-07-07T11:10:42Z</time>
      </trkpt>
      <trkpt lat="46.494137" lon="14.507439">
        <ele>1352.3976</ele>
        <time>2012-07-07T11:11:02Z</time>
      </trkpt>
      <trkpt lat="46.494255" lon="14.506541">
        <ele>1349.6544</ele>
        <time>2012-07-07T11:11:42Z</time>
      </trkpt>
      <trkpt lat="46.494191" lon="14.505835">
        <ele>1346.3016</ele>
        <time>2012-07-07T11:12:19Z</time>
      </trkpt>
      <trkpt lat="46.494111" lon="14.505498">
        <ele>1338.3768</ele>
        <time>2012-07-07T11:12:38Z</time>
      </trkpt>
      <trkpt lat="46.493724" lon="14.505449">
        <ele>1316.736</ele>
        <time>2012-07-07T11:13:26Z</time>
      </trkpt>
      <trkpt lat="46.493417" lon="14.505345">
        <ele>1320.3936</ele>
        <time>2012-07-07T11:14:14Z</time>
      </trkpt>
      <trkpt lat="46.493258" lon="14.505222">
        <ele>1315.212</ele>
        <time>2012-07-07T11:14:20Z</time>
      </trkpt>
      <trkpt lat="46.493075" lon="14.505172">
        <ele>1310.64</ele>
        <time>2012-07-07T11:14:42Z</time>
      </trkpt>
      <trkpt lat="46.492884" lon="14.505211">
        <ele>1304.544</ele>
        <time>2012-07-07T11:14:56Z</time>
      </trkpt>
      <trkpt lat="46.492636" lon="14.504953">
        <ele>1301.8008</ele>
        <time>2012-07-07T11:15:10Z</time>
      </trkpt>
      <trkpt lat="46.492490" lon="14.504723">
        <ele>1288.0848</ele>
        <time>2012-07-07T11:15:28Z</time>
      </trkpt>
      <trkpt lat="46.492269" lon="14.504779">
        <ele>1273.4544</ele>
        <time>2012-07-07T11:15:48Z</time>
      </trkpt>
      <trkpt lat="46.491900" lon="14.504332">
        <ele>1260.348</ele>
        <time>2012-07-07T11:16:27Z</time>
      </trkpt>
      <trkpt lat="46.491769" lon="14.504063">
        <ele>1255.1664</ele>
        <time>2012-07-07T11:16:46Z</time>
      </trkpt>
      <trkpt lat="46.491513" lon="14.504057">
        <ele>1252.728</ele>
        <time>2012-07-07T11:17:05Z</time>
      </trkpt>
      <trkpt lat="46.491250" lon="14.503883">
        <ele>1255.4712</ele>
        <time>2012-07-07T11:17:24Z</time>
      </trkpt>
      <trkpt lat="46.491209" lon="14.503552">
        <ele>1258.5192</ele>
        <time>2012-07-07T11:17:52Z</time>
      </trkpt>
      <trkpt lat="46.490982" lon="14.503313">
        <ele>1257.9096</ele>
        <time>2012-07-07T11:18:03Z</time>
      </trkpt>
      <trkpt lat="46.490927" lon="14.503048">
        <ele>1250.8992</ele>
        <time>2012-07-07T11:18:25Z</time>
      </trkpt>
      <trkpt lat="46.490983" lon="14.502783">
        <ele>1250.5944</ele>
        <time>2012-07-07T11:18:30Z</time>
      </trkpt>
      <trkpt lat="46.490856" lon="14.502249">
        <ele>1252.728</ele>
        <time>2012-07-07T11:19:01Z</time>
      </trkpt>
      <trkpt lat="46.490709" lon="14.502097">
        <ele>1257.9096</ele>
        <time>2012-07-07T11:19:26Z</time>
      </trkpt>
      <trkpt lat="46.490485" lon="14.502056">
        <ele>1257.3</ele>
        <time>2012-07-07T11:19:42Z</time>
      </trkpt>
      <trkpt lat="46.490322" lon="14.501919">
        <ele>1257.3</ele>
        <time>2012-07-07T11:20:06Z</time>
      </trkpt>
      <trkpt lat="46.490038" lon="14.502061">
        <ele>1260.9576</ele>
        <time>2012-07-07T11:20:29Z</time>
      </trkpt>
      <trkpt lat="46.489974" lon="14.502333">
        <ele>1271.3208</ele>
        <time>2012-07-07T11:21:12Z</time>
      </trkpt>
      <trkpt lat="46.489784" lon="14.502512">
        <ele>1272.8448</ele>
        <time>2012-07-07T11:21:19Z</time>
      </trkpt>
      <trkpt lat="46.489563" lon="14.502482">
        <ele>1273.4544</ele>
        <time>2012-07-07T11:21:35Z</time>
      </trkpt>
      <trkpt lat="46.489257" lon="14.502050">
        <ele>1280.16</ele>
        <time>2012-07-07T11:22:10Z</time>
      </trkpt>
      <trkpt lat="46.489184" lon="14.501694">
        <ele>1286.256</ele>
        <time>2012-07-07T11:22:29Z</time>
      </trkpt>
      <trkpt lat="46.489183" lon="14.501025">
        <ele>1285.0368</ele>
        <time>2012-07-07T11:23:07Z</time>
      </trkpt>
      <trkpt lat="46.489083" lon="14.499674">
        <ele>1288.6944</ele>
        <time>2012-07-07T11:24:09Z</time>
      </trkpt>
      <trkpt lat="46.489147" lon="14.499414">
        <ele>1286.5608</ele>
        <time>2012-07-07T11:24:25Z</time>
      </trkpt>
      <trkpt lat="46.488918" lon="14.499161">
        <ele>1289.304</ele>
        <time>2012-07-07T11:24:41Z</time>
      </trkpt>
      <trkpt lat="46.488449" lon="14.498338">
        <ele>1289.9136</ele>
        <time>2012-07-07T11:25:38Z</time>
      </trkpt>
      <trkpt lat="46.488266" lon="14.498440">
        <ele>1283.5128</ele>
        <time>2012-07-07T11:25:58Z</time>
      </trkpt>
      <trkpt lat="46.488039" lon="14.498881">
        <ele>1285.0368</ele>
        <time>2012-07-07T11:26:17Z</time>
      </trkpt>
      <trkpt lat="46.487910" lon="14.498679">
        <ele>1287.1704</ele>
        <time>2012-07-07T11:26:28Z</time>
      </trkpt>
      <trkpt lat="46.487739" lon="14.498540">
        <ele>1288.3896</ele>
        <time>2012-07-07T11:26:40Z</time>
      </trkpt>
      <trkpt lat="46.487556" lon="14.498489">
        <ele>1284.4272</ele>
        <time>2012-07-07T11:26:56Z</time>
      </trkpt>
      <trkpt lat="46.486296" lon="14.499001">
        <ele>1296.6192</ele>
        <time>2012-07-07T11:28:35Z</time>
      </trkpt>
      <trkpt lat="46.485781" lon="14.499352">
        <ele>1293.876</ele>
        <time>2012-07-07T11:29:13Z</time>
      </trkpt>
      <trkpt lat="46.485574" lon="14.499408">
        <ele>1294.7904</ele>
        <time>2012-07-07T11:29:22Z</time>
      </trkpt>
      <trkpt lat="46.485384" lon="14.499317">
        <ele>1291.7424</ele>
        <time>2012-07-07T11:29:34Z</time>
      </trkpt>
      <trkpt lat="46.485198" lon="14.499332">
        <ele>1289.6088</ele>
        <time>2012-07-07T11:29:52Z</time>
      </trkpt>
      <trkpt lat="46.485025" lon="14.499254">
        <ele>1290.2184</ele>
        <time>2012-07-07T11:30:00Z</time>
      </trkpt>
      <trkpt lat="46.484820" lon="14.499282">
        <ele>1290.5232</ele>
        <time>2012-07-07T11:30:12Z</time>
      </trkpt>
      <trkpt lat="46.484412" lon="14.499161">
        <ele>1296.924</ele>
        <time>2012-07-07T11:30:51Z</time>
      </trkpt>
      <trkpt lat="46.484312" lon="14.498915">
        <ele>1292.6568</ele>
        <time>2012-07-07T11:31:10Z</time>
      </trkpt>
      <trkpt lat="46.484246" lon="14.498589">
        <ele>1287.4752</ele>
        <time>2012-07-07T11:31:29Z</time>
      </trkpt>
      <trkpt lat="46.484407" lon="14.498470">
        <ele>1283.8176</ele>
        <time>2012-07-07T11:31:39Z</time>
      </trkpt>
      <trkpt lat="46.484490" lon="14.498220">
        <ele>1284.1224</ele>
        <time>2012-07-07T11:31:49Z</time>
      </trkpt>
      <trkpt lat="46.484320" lon="14.497422">
        <ele>1283.208</ele>
        <time>2012-07-07T11:32:31Z</time>
      </trkpt>
      <trkpt lat="46.484123" lon="14.497387">
        <ele>1284.732</ele>
        <time>2012-07-07T11:32:39Z</time>
      </trkpt>
      <trkpt lat="46.483799" lon="14.497076">
        <ele>1277.7216</ele>
        <time>2012-07-07T11:33:09Z</time>
      </trkpt>
      <trkpt lat="46.483448" lon="14.496888">
        <ele>1277.7216</ele>
        <time>2012-07-07T11:33:29Z</time>
      </trkpt>
      <trkpt lat="46.483160" lon="14.496372">
        <ele>1279.8552</ele>
        <time>2012-07-07T11:34:07Z</time>
      </trkpt>
      <trkpt lat="46.483035" lon="14.496040">
        <ele>1278.0264</ele>
        <time>2012-07-07T11:34:26Z</time>
      </trkpt>
      <trkpt lat="46.483193" lon="14.495319">
        <ele>1271.3208</ele>
        <time>2012-07-07T11:35:04Z</time>
      </trkpt>
      <trkpt lat="46.483247" lon="14.494506">
        <ele>1266.1392</ele>
        <time>2012-07-07T11:35:43Z</time>
      </trkpt>
      <trkpt lat="46.483358" lon="14.494027">
        <ele>1267.6632</ele>
        <time>2012-07-07T11:36:03Z</time>
      </trkpt>
      <trkpt lat="46.483257" lon="14.493323">
        <ele>1270.1016</ele>
        <time>2012-07-07T11:36:41Z</time>
      </trkpt>
      <trkpt lat="46.482988" lon="14.492540">
        <ele>1274.064</ele>
        <time>2012-07-07T11:37:20Z</time>
      </trkpt>
      <trkpt lat="46.482821" lon="14.492437">
        <ele>1270.4064</ele>
        <time>2012-07-07T11:37:40Z</time>
      </trkpt>
      <trkpt lat="46.482423" lon="14.492036">
        <ele>1267.0536</ele>
        <time>2012-07-07T11:38:17Z</time>
      </trkpt>
      <trkpt lat="46.482278" lon="14.491734">
        <ele>1268.8824</ele>
        <time>2012-07-07T11:38:37Z</time>
      </trkpt>
      <trkpt lat="46.481576" lon="14.491650">
        <ele>1252.728</ele>
        <time>2012-07-07T11:40:01Z</time>
      </trkpt>
      <trkpt lat="46.481114" lon="14.491523">
        <ele>1248.7656</ele>
        <time>2012-07-07T11:40:40Z</time>
      </trkpt>
      <trkpt lat="46.481064" lon="14.491263">
        <ele>1245.4128</ele>
        <time>2012-07-07T11:40:48Z</time>
      </trkpt>
      <trkpt lat="46.480638" lon="14.490929">
        <ele>1242.06</ele>
        <time>2012-07-07T11:41:41Z</time>
      </trkpt>
      <trkpt lat="46.480523" lon="14.490691">
        <ele>1237.488</ele>
        <time>2012-07-07T11:41:45Z</time>
      </trkpt>
      <trkpt lat="46.480478" lon="14.490087">
        <ele>1217.676</ele>
        <time>2012-07-07T11:42:17Z</time>
      </trkpt>
      <trkpt lat="46.480534" lon="14.489615">
        <ele>1219.2</ele>
        <time>2012-07-07T11:42:39Z</time>
      </trkpt>
      <trkpt lat="46.480700" lon="14.489422">
        <ele>1219.2</ele>
        <time>2012-07-07T11:42:44Z</time>
      </trkpt>
      <trkpt lat="46.480872" lon="14.488709">
        <ele>1214.628</ele>
        <time>2012-07-07T11:44:06Z</time>
      </trkpt>
      <trkpt lat="46.480992" lon="14.487378">
        <ele>1214.9328</ele>
        <time>2012-07-07T11:44:31Z</time>
      </trkpt>
      <trkpt lat="46.481002" lon="14.486783">
        <ele>1212.4944</ele>
        <time>2012-07-07T11:45:03Z</time>
      </trkpt>
      <trkpt lat="46.481126" lon="14.486412">
        <ele>1210.9704</ele>
        <time>2012-07-07T11:45:26Z</time>
      </trkpt>
      <trkpt lat="46.481562" lon="14.486536">
        <ele>1207.9224</ele>
        <time>2012-07-07T11:46:08Z</time>
      </trkpt>
      <trkpt lat="46.481743" lon="14.486525">
        <ele>1207.9224</ele>
        <time>2012-07-07T11:46:17Z</time>
      </trkpt>
      <trkpt lat="46.482223" lon="14.487010">
        <ele>1201.8264</ele>
        <time>2012-07-07T11:47:41Z</time>
      </trkpt>
      <trkpt lat="46.482738" lon="14.487205">
        <ele>1196.6448</ele>
        <time>2012-07-07T11:47:52Z</time>
      </trkpt>
      <trkpt lat="46.483175" lon="14.487074">
        <ele>1183.2336</ele>
        <time>2012-07-07T11:48:12Z</time>
      </trkpt>
      <trkpt lat="46.483559" lon="14.486855">
        <ele>1185.0624</ele>
        <time>2012-07-07T11:48:34Z</time>
      </trkpt>
      <trkpt lat="46.484046" lon="14.486800">
        <ele>1172.8704</ele>
        <time>2012-07-07T11:49:13Z</time>
      </trkpt>
      <trkpt lat="46.484257" lon="14.486327">
        <ele>1170.7368</ele>
        <time>2012-07-07T11:49:40Z</time>
      </trkpt>
      <trkpt lat="46.484106" lon="14.485772">
        <ele>1151.5344</ele>
        <time>2012-07-07T11:50:11Z</time>
      </trkpt>
      <trkpt lat="46.483737" lon="14.485322">
        <ele>1143</ele>
        <time>2012-07-07T11:50:50Z</time>
      </trkpt>
      <trkpt lat="46.484089" lon="14.485385">
        <ele>1137.5136</ele>
        <time>2012-07-07T11:52:45Z</time>
      </trkpt>
      <trkpt lat="46.484392" lon="14.485671">
        <ele>1137.2088</ele>
        <time>2012-07-07T11:53:05Z</time>
      </trkpt>
      <trkpt lat="46.484586" lon="14.485510">
        <ele>1136.904</ele>
        <time>2012-07-07T11:53:25Z</time>
      </trkpt>
      <trkpt lat="46.484564" lon="14.484978">
        <ele>1110.6912</ele>
        <time>2012-07-07T11:54:49Z</time>
      </trkpt>
      <trkpt lat="46.484261" lon="14.484084">
        <ele>1098.804</ele>
        <time>2012-07-07T11:55:08Z</time>
      </trkpt>
      <trkpt lat="46.484167" lon="14.483648">
        <ele>1098.804</ele>
        <time>2012-07-07T11:55:28Z</time>
      </trkpt>
      <trkpt lat="46.484154" lon="14.482918">
        <ele>1089.66</ele>
        <time>2012-07-07T11:56:10Z</time>
      </trkpt>
      <trkpt lat="46.484420" lon="14.481645">
        <ele>1086.9168</ele>
        <time>2012-07-07T11:57:36Z</time>
      </trkpt>
      <trkpt lat="46.484321" lon="14.480869">
        <ele>1083.564</ele>
        <time>2012-07-07T11:58:13Z</time>
      </trkpt>
      <trkpt lat="46.484062" lon="14.479978">
        <ele>1074.42</ele>
        <time>2012-07-07T11:59:14Z</time>
      </trkpt>
      <trkpt lat="46.483907" lon="14.479738">
        <ele>1076.5536</ele>
        <time>2012-07-07T11:59:38Z</time>
      </trkpt>
      <trkpt lat="46.483808" lon="14.479355">
        <ele>1075.0296</ele>
        <time>2012-07-07T11:59:54Z</time>
      </trkpt>
      <trkpt lat="46.483754" lon="14.478804">
        <ele>1058.8752</ele>
        <time>2012-07-07T12:00:44Z</time>
      </trkpt>
      <trkpt lat="46.483669" lon="14.478502">
        <ele>1059.4848</ele>
        <time>2012-07-07T12:01:49Z</time>
      </trkpt>
      <trkpt lat="46.483596" lon="14.477703">
        <ele>1064.0568</ele>
        <time>2012-07-07T12:02:05Z</time>
      </trkpt>
      <trkpt lat="46.483528" lon="14.477431">
        <ele>1070.1528</ele>
        <time>2012-07-07T12:02:44Z</time>
      </trkpt>
      <trkpt lat="46.483461" lon="14.476742">
        <ele>1066.8</ele>
        <time>2012-07-07T12:03:27Z</time>
      </trkpt>
      <trkpt lat="46.483475" lon="14.476472">
        <ele>1050.9504</ele>
        <time>2012-07-07T12:03:36Z</time>
      </trkpt>
      <trkpt lat="46.483548" lon="14.476216">
        <ele>1050.6456</ele>
        <time>2012-07-07T12:03:57Z</time>
      </trkpt>
      <trkpt lat="46.483374" lon="14.476059">
        <ele>1054.3032</ele>
        <time>2012-07-07T12:04:13Z</time>
      </trkpt>
      <trkpt lat="46.483196" lon="14.476002">
        <ele>1061.6184</ele>
        <time>2012-07-07T12:04:34Z</time>
      </trkpt>
      <trkpt lat="46.483314" lon="14.475775">
        <ele>1064.0568</ele>
        <time>2012-07-07T12:04:50Z</time>
      </trkpt>
      <trkpt lat="46.483381" lon="14.475339">
        <ele>1064.9712</ele>
        <time>2012-07-07T12:05:26Z</time>
      </trkpt>
      <trkpt lat="46.483303" lon="14.474940">
        <ele>1071.9816</ele>
        <time>2012-07-07T12:06:07Z</time>
      </trkpt>
      <trkpt lat="46.482949" lon="14.474645">
        <ele>1072.5912</ele>
        <time>2012-07-07T12:06:34Z</time>
      </trkpt>
      <trkpt lat="46.482893" lon="14.474380">
        <ele>1073.5056</ele>
        <time>2012-07-07T12:06:51Z</time>
      </trkpt>
      <trkpt lat="46.482700" lon="14.474029">
        <ele>1074.42</ele>
        <time>2012-07-07T12:07:09Z</time>
      </trkpt>
      <trkpt lat="46.482636" lon="14.473674">
        <ele>1076.8584</ele>
        <time>2012-07-07T12:07:26Z</time>
      </trkpt>
      <trkpt lat="46.482721" lon="14.472884">
        <ele>1070.1528</ele>
        <time>2012-07-07T12:08:07Z</time>
      </trkpt>
      <trkpt lat="46.482828" lon="14.472520">
        <ele>1073.2008</ele>
        <time>2012-07-07T12:08:27Z</time>
      </trkpt>
      <trkpt lat="46.482585" lon="14.471645">
        <ele>1074.7248</ele>
        <time>2012-07-07T12:09:05Z</time>
      </trkpt>
      <trkpt lat="46.482656" lon="14.471404">
        <ele>1060.3992</ele>
        <time>2012-07-07T12:09:29Z</time>
      </trkpt>
      <trkpt lat="46.482663" lon="14.471128">
        <ele>1044.5496</ele>
        <time>2012-07-07T12:09:48Z</time>
      </trkpt>
      <trkpt lat="46.482493" lon="14.470895">
        <ele>1038.4536</ele>
        <time>2012-07-07T12:10:06Z</time>
      </trkpt>
      <trkpt lat="46.482418" lon="14.470645">
        <ele>1036.6248</ele>
        <time>2012-07-07T12:10:12Z</time>
      </trkpt>
      <trkpt lat="46.481871" lon="14.470284">
        <ele>1038.1488</ele>
        <time>2012-07-07T12:10:48Z</time>
      </trkpt>
      <trkpt lat="46.481572" lon="14.470408">
        <ele>1037.5392</ele>
        <time>2012-07-07T12:11:09Z</time>
      </trkpt>
      <trkpt lat="46.481308" lon="14.470428">
        <ele>1037.2344</ele>
        <time>2012-07-07T12:11:31Z</time>
      </trkpt>
      <trkpt lat="46.481105" lon="14.470289">
        <ele>1040.2824</ele>
        <time>2012-07-07T12:11:48Z</time>
      </trkpt>
      <trkpt lat="46.480966" lon="14.469892">
        <ele>1047.2928</ele>
        <time>2012-07-07T12:12:10Z</time>
      </trkpt>
      <trkpt lat="46.480749" lon="14.469513">
        <ele>1048.8168</ele>
        <time>2012-07-07T12:12:27Z</time>
      </trkpt>
      <trkpt lat="46.480207" lon="14.468061">
        <ele>1057.9608</ele>
        <time>2012-07-07T12:13:55Z</time>
      </trkpt>
      <trkpt lat="46.479957" lon="14.468002">
        <ele>1058.8752</ele>
        <time>2012-07-07T12:14:15Z</time>
      </trkpt>
      <trkpt lat="46.479743" lon="14.467832">
        <ele>1072.5912</ele>
        <time>2012-07-07T12:14:56Z</time>
      </trkpt>
      <trkpt lat="46.479562" lon="14.467816">
        <ele>1068.6288</ele>
        <time>2012-07-07T12:15:16Z</time>
      </trkpt>
      <trkpt lat="46.479249" lon="14.467519">
        <ele>1062.228</ele>
        <time>2012-07-07T12:15:54Z</time>
      </trkpt>
    </trkseg>
  </trk>
</gpx>
